createdAt,value
2018-12-04T00:00:43.767Z,13.60
2018-12-04T00:01:44.839Z,13.60
2018-12-04T00:02:46.323Z,13.60
2018-12-04T00:03:47.532Z,13.60
2018-12-04T00:04:48.512Z,13.60
2018-12-04T00:05:49.476Z,13.60
2018-12-04T00:06:50.610Z,13.60
2018-12-04T00:07:51.686Z,13.60
2018-12-04T00:08:52.783Z,13.60
2018-12-04T00:09:53.758Z,13.60
2018-12-04T00:10:54.767Z,13.70
2018-12-04T00:11:55.839Z,13.70
2018-12-04T00:12:56.811Z,13.70
2018-12-04T00:13:57.819Z,13.70
2018-12-04T00:14:58.895Z,13.70
2018-12-04T00:15:59.871Z,13.70
2018-12-04T00:17:00.847Z,13.70
2018-12-04T00:18:02.036Z,13.70
2018-12-04T00:19:03.115Z,13.70
2018-12-04T00:20:04.803Z,13.70
2018-12-04T00:21:05.815Z,13.60
2018-12-04T00:22:06.807Z,13.70
2018-12-04T00:23:07.779Z,13.60
2018-12-04T00:24:08.748Z,13.60
2018-12-04T00:25:09.865Z,13.70
2018-12-04T00:26:10.837Z,13.60
2018-12-04T00:27:11.906Z,13.60
2018-12-04T00:28:13.075Z,13.60
2018-12-04T00:29:14.259Z,13.60
2018-12-04T00:30:15.353Z,13.60
2018-12-04T00:31:16.354Z,13.60
2018-12-04T00:32:17.510Z,13.60
2018-12-04T00:33:18.489Z,13.60
2018-12-04T00:34:19.496Z,13.50
2018-12-04T00:35:20.458Z,13.50
2018-12-04T00:36:21.420Z,13.50
2018-12-04T00:37:22.407Z,13.50
2018-12-04T00:38:23.479Z,13.50
2018-12-04T00:39:24.450Z,13.50
2018-12-04T00:40:25.603Z,13.50
2018-12-04T00:41:26.548Z,13.50
2018-12-04T00:42:27.503Z,13.50
2018-12-04T00:43:28.482Z,13.50
2018-12-04T00:44:29.439Z,13.50
2018-12-04T00:45:30.511Z,13.50
2018-12-04T00:46:31.466Z,13.50
2018-12-04T00:47:32.427Z,13.50
2018-12-04T00:48:33.479Z,13.40
2018-12-04T00:49:34.486Z,13.40
2018-12-04T00:50:35.452Z,13.50
2018-12-04T00:51:36.415Z,13.50
2018-12-04T00:52:37.372Z,13.40
2018-12-04T00:53:38.335Z,13.40
2018-12-04T00:54:39.507Z,13.40
2018-12-04T00:55:40.588Z,13.40
2018-12-04T00:56:41.760Z,13.40
2018-12-04T00:57:42.723Z,13.40
2018-12-04T00:58:43.683Z,13.40
2018-12-04T00:59:44.764Z,13.40
2018-12-04T01:00:45.716Z,13.40
2018-12-04T01:01:46.786Z,13.40
2018-12-04T01:02:47.902Z,13.40
2018-12-04T01:03:48.856Z,13.30
2018-12-04T01:04:49.944Z,13.40
2018-12-04T01:05:50.954Z,13.30
2018-12-04T01:06:51.921Z,13.40
2018-12-04T01:07:52.877Z,13.40
2018-12-04T01:08:53.947Z,13.40
2018-12-04T01:09:54.927Z,13.40
2018-12-04T01:10:56.095Z,13.40
2018-12-04T01:11:57.259Z,13.40
2018-12-04T01:12:58.319Z,13.40
2018-12-04T01:13:59.436Z,13.40
2018-12-04T01:15:00.664Z,13.40
2018-12-04T01:16:01.624Z,13.40
2018-12-04T01:17:02.793Z,13.40
2018-12-04T01:18:03.740Z,13.40
2018-12-04T01:19:04.812Z,13.40
2018-12-04T01:20:06.072Z,13.40
2018-12-04T01:21:07.051Z,13.40
2018-12-04T01:22:08.007Z,13.50
2018-12-04T01:23:09.055Z,13.40
2018-12-04T01:24:10.023Z,13.40
2018-12-04T01:25:11.107Z,13.50
2018-12-04T01:26:12.188Z,13.40
2018-12-04T01:27:13.132Z,13.40
2018-12-04T01:28:14.099Z,13.40
2018-12-04T01:29:15.055Z,13.40
2018-12-04T01:30:16.120Z,13.40
2018-12-04T01:31:17.208Z,13.40
2018-12-04T01:32:18.240Z,13.40
2018-12-04T01:33:19.319Z,13.30
2018-12-04T01:34:20.304Z,13.30
2018-12-04T01:35:21.291Z,13.30
2018-12-04T01:36:22.492Z,13.10
2018-12-04T01:37:23.563Z,13.20
2018-12-04T01:38:24.824Z,13.20
2018-12-04T01:39:25.794Z,13.20
2018-12-04T01:40:26.883Z,13.20
2018-12-04T01:41:28.131Z,13.20
2018-12-04T01:42:29.091Z,13.10
2018-12-04T01:43:30.051Z,13.10
2018-12-04T01:44:31.153Z,13.10
2018-12-04T01:45:32.295Z,13.10
2018-12-04T01:46:33.344Z,13.10
2018-12-04T01:47:34.307Z,13.10
2018-12-04T01:48:35.484Z,13.10
2018-12-04T01:49:36.435Z,13.10
2018-12-04T01:50:37.416Z,13.10
2018-12-04T01:51:38.383Z,13.10
2018-12-04T01:52:39.532Z,13.10
2018-12-04T01:53:40.496Z,13.10
2018-12-04T01:54:41.452Z,13.00
2018-12-04T01:55:42.400Z,13.00
2018-12-04T01:56:43.384Z,13.00
2018-12-04T01:57:44.353Z,13.00
2018-12-04T01:58:45.312Z,13.00
2018-12-04T01:59:46.281Z,12.90
2018-12-04T02:00:47.254Z,12.90
2018-12-04T02:01:48.236Z,12.90
2018-12-04T02:02:49.307Z,12.90
2018-12-04T02:03:50.252Z,13.00
2018-12-04T02:04:51.212Z,12.90
2018-12-04T02:05:52.265Z,13.00
2018-12-04T02:06:53.218Z,13.00
2018-12-04T02:07:54.286Z,13.00
2018-12-04T02:08:55.400Z,13.00
2018-12-04T02:09:56.372Z,13.00
2018-12-04T02:10:57.467Z,13.00
2018-12-04T02:11:58.432Z,13.00
2018-12-04T02:12:59.513Z,13.00
2018-12-04T02:14:00.613Z,13.10
2018-12-04T02:15:01.968Z,13.00
2018-12-04T02:16:03.135Z,13.00
2018-12-04T02:17:04.103Z,13.00
2018-12-04T02:18:05.399Z,13.00
2018-12-04T02:19:06.463Z,13.00
2018-12-04T02:20:07.642Z,13.00
2018-12-04T02:21:08.607Z,13.10
2018-12-04T02:22:09.568Z,13.00
2018-12-04T02:23:10.638Z,13.10
2018-12-04T02:24:11.807Z,13.10
2018-12-04T02:25:12.759Z,13.10
2018-12-04T02:26:13.721Z,13.10
2018-12-04T02:27:14.673Z,13.00
2018-12-04T02:28:15.631Z,13.00
2018-12-04T02:29:16.599Z,13.00
2018-12-04T02:30:18.045Z,13.00
2018-12-04T02:31:19.100Z,13.00
2018-12-04T02:32:20.061Z,12.90
2018-12-04T02:33:21.031Z,12.90
2018-12-04T02:34:22.086Z,13.00
2018-12-04T02:35:23.151Z,12.90
2018-12-04T02:36:24.271Z,12.90
2018-12-04T02:37:25.387Z,12.90
2018-12-04T02:38:26.443Z,12.90
2018-12-04T02:39:27.392Z,13.00
2018-12-04T02:40:28.367Z,13.00
2018-12-04T02:41:29.331Z,13.00
2018-12-04T02:42:30.406Z,13.00
2018-12-04T02:43:31.471Z,13.00
2018-12-04T02:44:32.429Z,13.00
2018-12-04T02:45:33.604Z,13.00
2018-12-04T02:46:34.675Z,13.10
2018-12-04T02:47:35.654Z,13.10
2018-12-04T02:48:36.652Z,13.10
2018-12-04T02:49:37.716Z,13.10
2018-12-04T02:50:38.786Z,13.10
2018-12-04T02:51:39.745Z,13.10
2018-12-04T02:52:40.817Z,13.20
2018-12-04T02:53:41.805Z,13.20
2018-12-04T02:54:42.981Z,13.30
2018-12-04T02:55:44.160Z,13.20
2018-12-04T02:56:45.220Z,13.20
2018-12-04T02:57:53.232Z,13.20
2018-12-04T02:58:54.198Z,13.20
2018-12-04T02:59:55.139Z,13.20
2018-12-04T03:00:56.104Z,13.20
2018-12-04T03:01:57.152Z,13.20
2018-12-04T03:02:58.119Z,13.20
2018-12-04T03:03:59.184Z,13.10
2018-12-04T03:05:00.343Z,13.10
2018-12-04T03:06:01.296Z,13.10
2018-12-04T03:07:02.472Z,13.10
2018-12-04T03:08:03.747Z,13.00
2018-12-04T03:09:05.203Z,13.00
2018-12-04T03:10:06.460Z,13.00
2018-12-04T03:11:07.524Z,13.00
2018-12-04T03:12:08.698Z,13.00
2018-12-04T03:13:09.652Z,13.00
2018-12-04T03:14:10.607Z,13.10
2018-12-04T03:15:11.584Z,13.10
2018-12-04T03:16:12.680Z,13.10
2018-12-04T03:17:13.647Z,13.00
2018-12-04T03:18:14.604Z,13.00
2018-12-04T03:19:15.563Z,13.00
2018-12-04T03:20:16.596Z,13.00
2018-12-04T03:21:17.601Z,13.00
2018-12-04T03:22:18.684Z,13.10
2018-12-04T03:23:19.971Z,13.10
2018-12-04T03:24:20.932Z,13.10
2018-12-04T03:25:21.998Z,13.10
2018-12-04T03:26:23.065Z,13.10
2018-12-04T03:27:24.129Z,13.10
2018-12-04T03:28:25.089Z,13.10
2018-12-04T03:29:26.146Z,13.10
2018-12-04T03:30:27.121Z,13.20
2018-12-04T03:31:28.084Z,13.20
2018-12-04T03:32:29.152Z,13.20
2018-12-04T03:33:34.755Z,13.20
2018-12-04T03:34:35.733Z,13.20
2018-12-04T03:35:36.687Z,13.20
2018-12-04T03:36:37.751Z,13.20
2018-12-04T03:37:38.720Z,13.20
2018-12-04T03:38:39.782Z,13.20
2018-12-04T03:39:41.036Z,13.20
2018-12-04T03:40:42.017Z,13.20
2018-12-04T03:41:43.098Z,13.20
2018-12-04T03:42:44.058Z,13.20
2018-12-04T03:43:45.023Z,13.20
2018-12-04T03:44:46.188Z,13.20
2018-12-04T03:45:47.171Z,13.20
2018-12-04T03:46:48.155Z,13.20
2018-12-04T03:47:49.124Z,13.20
2018-12-04T03:48:50.120Z,13.20
2018-12-04T03:49:51.186Z,13.20
2018-12-04T03:50:52.240Z,13.10
2018-12-04T03:51:53.204Z,13.10
2018-12-04T03:52:54.392Z,13.10
2018-12-04T03:53:55.357Z,13.10
2018-12-04T03:54:56.416Z,13.10
2018-12-04T03:55:57.388Z,13.10
2018-12-04T03:56:58.356Z,13.10
2018-12-04T03:57:59.404Z,13.10
2018-12-04T03:59:00.478Z,13.10
2018-12-04T04:00:01.764Z,12.90
2018-12-04T04:01:02.907Z,13.10
2018-12-04T04:02:04.071Z,13.10
2018-12-04T04:03:05.119Z,13.10
2018-12-04T04:04:06.087Z,13.00
2018-12-04T04:05:07.147Z,13.00
2018-12-04T04:06:08.222Z,13.00
2018-12-04T04:07:09.280Z,13.00
2018-12-04T04:08:10.360Z,13.00
2018-12-04T04:09:11.303Z,13.00
2018-12-04T04:10:12.464Z,13.00
2018-12-04T04:11:13.524Z,13.00
2018-12-04T04:12:14.485Z,12.90
2018-12-04T04:13:15.536Z,12.90
2018-12-04T04:14:16.596Z,13.00
2018-12-04T04:15:17.866Z,13.00
2018-12-04T04:16:18.824Z,13.00
2018-12-04T04:17:19.979Z,13.00
2018-12-04T04:18:20.983Z,13.00
2018-12-04T04:19:21.939Z,12.90
2018-12-04T04:20:23.103Z,12.90
2018-12-04T04:21:24.288Z,12.80
2018-12-04T04:22:25.250Z,12.80
2018-12-04T04:23:26.218Z,12.80
2018-12-04T04:24:27.375Z,12.80
2018-12-04T04:25:28.342Z,12.80
2018-12-04T04:26:29.307Z,12.80
2018-12-04T04:27:30.258Z,12.80
2018-12-04T04:28:31.316Z,12.80
2018-12-04T04:29:32.263Z,12.70
2018-12-04T04:30:33.220Z,12.70
2018-12-04T04:31:34.387Z,12.80
2018-12-04T04:32:42.218Z,12.80
2018-12-04T04:33:43.372Z,12.70
2018-12-04T04:34:44.319Z,12.70
2018-12-04T04:35:45.308Z,12.70
2018-12-04T04:36:46.381Z,12.80
2018-12-04T04:37:47.457Z,12.70
2018-12-04T04:38:48.447Z,12.70
2018-12-04T04:39:49.390Z,12.70
2018-12-04T04:40:50.458Z,12.70
2018-12-04T04:41:51.560Z,12.60
2018-12-04T04:42:52.524Z,12.70
2018-12-04T04:43:53.484Z,12.70
2018-12-04T04:45:01.448Z,12.70
2018-12-04T04:46:02.524Z,12.80
2018-12-04T04:47:03.469Z,12.70
2018-12-04T04:48:04.456Z,12.70
2018-12-04T04:49:05.445Z,12.70
2018-12-04T04:50:06.619Z,12.70
2018-12-04T04:51:07.695Z,12.70
2018-12-04T04:52:08.766Z,12.70
2018-12-04T04:53:09.837Z,12.70
2018-12-04T04:54:10.890Z,12.70
2018-12-04T04:55:12.013Z,12.70
2018-12-04T04:56:13.131Z,12.70
2018-12-04T04:57:14.210Z,12.70
2018-12-04T04:58:15.279Z,12.60
2018-12-04T04:59:16.245Z,12.60
2018-12-04T05:00:17.316Z,12.60
2018-12-04T05:01:18.314Z,12.60
2018-12-04T05:02:19.409Z,12.70
2018-12-04T05:03:20.453Z,12.60
2018-12-04T05:04:21.460Z,12.60
2018-12-04T05:05:22.679Z,12.60
2018-12-04T05:06:23.647Z,12.60
2018-12-04T05:07:24.927Z,12.60
2018-12-04T05:08:25.893Z,12.60
2018-12-04T05:09:26.969Z,12.50
2018-12-04T05:10:28.145Z,12.50
2018-12-04T05:11:29.115Z,12.50
2018-12-04T05:12:30.155Z,12.50
2018-12-04T05:13:31.156Z,12.50
2018-12-04T05:14:32.128Z,12.50
2018-12-04T05:15:33.196Z,12.50
2018-12-04T05:16:34.148Z,12.50
2018-12-04T05:17:35.130Z,12.50
2018-12-04T05:18:36.091Z,12.50
2018-12-04T05:19:37.156Z,12.50
2018-12-04T05:20:38.121Z,12.50
2018-12-04T05:21:39.176Z,12.50
2018-12-04T05:22:40.140Z,12.50
2018-12-04T05:23:41.111Z,12.50
2018-12-04T05:24:42.072Z,12.50
2018-12-04T05:25:43.034Z,12.50
2018-12-04T05:26:44.100Z,12.40
2018-12-04T05:27:45.192Z,12.40
2018-12-04T05:28:46.268Z,12.40
2018-12-04T05:29:47.220Z,12.40
2018-12-04T05:30:48.296Z,12.30
2018-12-04T05:31:49.369Z,12.30
2018-12-04T05:32:50.439Z,12.30
2018-12-04T05:33:51.604Z,12.30
2018-12-04T05:34:52.552Z,12.20
2018-12-04T05:35:53.509Z,12.20
2018-12-04T05:36:54.472Z,12.20
2018-12-04T05:37:55.452Z,12.20
2018-12-04T05:38:56.411Z,12.20
2018-12-04T05:39:57.392Z,12.10
2018-12-04T05:40:58.360Z,12.10
2018-12-04T05:41:59.337Z,12.10
2018-12-04T05:43:00.298Z,12.10
2018-12-04T05:44:01.398Z,12.10
2018-12-04T05:45:03.032Z,12.00
2018-12-04T05:46:04.220Z,12.00
2018-12-04T05:47:05.225Z,12.10
2018-12-04T05:48:06.192Z,12.00
2018-12-04T05:49:07.310Z,12.00
2018-12-04T05:50:08.262Z,11.90
2018-12-04T05:51:09.332Z,11.90
2018-12-04T05:52:10.311Z,12.00
2018-12-04T05:53:21.405Z,12.00
2018-12-04T05:54:22.359Z,12.00
2018-12-04T05:55:23.312Z,12.00
2018-12-04T05:56:24.364Z,12.00
2018-12-04T05:57:25.391Z,12.00
2018-12-04T05:58:26.340Z,12.00
2018-12-04T05:59:27.295Z,12.00
2018-12-04T06:00:28.267Z,12.00
2018-12-04T06:01:29.644Z,12.10
2018-12-04T06:02:30.616Z,12.00
2018-12-04T06:03:31.793Z,12.00
2018-12-04T06:04:33.080Z,12.00
2018-12-04T06:05:34.042Z,12.00
2018-12-04T06:06:35.012Z,12.00
2018-12-04T06:07:35.982Z,12.00
2018-12-04T06:08:37.047Z,12.00
2018-12-04T06:09:37.997Z,12.00
2018-12-04T06:10:39.056Z,12.00
2018-12-04T06:11:40.211Z,12.10
2018-12-04T06:12:41.172Z,12.10
2018-12-04T06:13:42.128Z,12.10
2018-12-04T06:14:43.081Z,12.10
2018-12-04T06:15:44.143Z,12.10
2018-12-04T06:16:45.211Z,12.10
2018-12-04T06:17:46.299Z,12.10
2018-12-04T06:18:47.368Z,12.10
2018-12-04T06:19:48.457Z,12.10
2018-12-04T06:20:49.517Z,12.10
2018-12-04T06:21:50.528Z,12.10
2018-12-04T06:22:51.587Z,12.10
2018-12-04T06:23:52.643Z,12.00
2018-12-04T06:25:00.600Z,12.00
2018-12-04T06:26:01.582Z,12.00
2018-12-04T06:27:09.500Z,12.10
2018-12-04T06:28:10.446Z,12.10
2018-12-04T06:29:11.412Z,12.10
2018-12-04T06:30:12.593Z,12.10
2018-12-04T06:31:13.589Z,12.10
2018-12-04T06:32:14.582Z,12.20
2018-12-04T06:33:15.551Z,11.90
2018-12-04T06:34:16.612Z,12.10
2018-12-04T06:35:17.702Z,12.10
2018-12-04T06:36:18.928Z,12.10
2018-12-04T06:37:20.224Z,12.10
2018-12-04T06:38:28.372Z,12.10
2018-12-04T06:39:29.425Z,12.10
2018-12-04T06:40:30.391Z,12.10
2018-12-04T06:41:31.464Z,12.10
2018-12-04T06:42:32.456Z,12.10
2018-12-04T06:43:33.419Z,12.10
2018-12-04T06:44:35.312Z,12.10
2018-12-04T06:45:36.560Z,12.10
2018-12-04T06:46:37.643Z,12.10
2018-12-04T06:47:38.639Z,12.10
2018-12-04T06:48:39.788Z,12.10
2018-12-04T06:49:40.808Z,12.10
2018-12-04T06:50:41.777Z,12.10
2018-12-04T06:51:42.739Z,12.10
2018-12-04T06:52:43.709Z,12.10
2018-12-04T06:53:44.784Z,12.10
2018-12-04T06:54:45.755Z,12.10
2018-12-04T06:55:46.732Z,12.20
2018-12-04T06:56:47.699Z,12.10
2018-12-04T06:57:55.392Z,12.20
2018-12-04T06:58:56.363Z,12.10
2018-12-04T06:59:57.315Z,12.10
2018-12-04T07:00:58.315Z,12.10
2018-12-04T07:01:59.283Z,12.10
2018-12-04T07:03:00.255Z,12.10
2018-12-04T07:04:01.229Z,12.10
2018-12-04T07:05:03.126Z,12.10
2018-12-04T07:06:04.206Z,12.10
2018-12-04T07:07:05.171Z,12.00
2018-12-04T07:08:06.145Z,12.00
2018-12-04T07:09:07.320Z,12.00
2018-12-04T07:10:08.394Z,12.00
2018-12-04T07:11:09.374Z,12.00
2018-12-04T07:12:10.362Z,11.90
2018-12-04T07:13:11.323Z,11.80
2018-12-04T07:14:12.288Z,11.90
2018-12-04T07:15:13.455Z,11.90
2018-12-04T07:16:14.422Z,11.90
2018-12-04T07:17:15.411Z,11.90
2018-12-04T07:18:16.499Z,11.80
2018-12-04T07:19:17.459Z,11.80
2018-12-04T07:20:18.416Z,11.90
2018-12-04T07:21:19.507Z,11.90
2018-12-04T07:22:20.513Z,11.90
2018-12-04T07:23:21.494Z,11.90
2018-12-04T07:24:22.730Z,11.90
2018-12-04T07:25:23.699Z,11.90
2018-12-04T07:26:24.663Z,11.90
2018-12-04T07:27:25.780Z,11.90
2018-12-04T07:28:26.785Z,11.90
2018-12-04T07:29:27.756Z,11.90
2018-12-04T07:30:28.851Z,11.90
2018-12-04T07:31:29.916Z,11.80
2018-12-04T07:32:30.988Z,11.90
2018-12-04T07:33:31.963Z,11.80
2018-12-04T07:34:33.112Z,11.80
2018-12-04T07:35:34.148Z,11.80
2018-12-04T07:36:35.107Z,11.70
2018-12-04T07:37:36.083Z,11.80
2018-12-04T07:38:37.077Z,11.80
2018-12-04T07:39:38.167Z,11.80
2018-12-04T07:40:39.388Z,11.70
2018-12-04T07:41:40.480Z,11.70
2018-12-04T07:42:41.455Z,11.70
2018-12-04T07:43:42.636Z,11.60
2018-12-04T07:44:43.615Z,11.50
2018-12-04T07:45:44.595Z,11.50
2018-12-04T07:46:45.694Z,11.50
2018-12-04T07:47:46.828Z,11.50
2018-12-04T07:48:47.919Z,11.50
2018-12-04T07:49:49.006Z,11.50
2018-12-04T07:50:50.084Z,11.50
2018-12-04T07:51:51.072Z,11.60
2018-12-04T07:52:52.065Z,11.60
2018-12-04T07:53:53.106Z,11.60
2018-12-04T07:54:55.582Z,11.60
2018-12-04T07:55:56.573Z,11.70
2018-12-04T07:57:04.519Z,11.70
2018-12-04T07:58:05.632Z,11.60
2018-12-04T07:59:06.617Z,11.70
2018-12-04T08:00:08.002Z,11.60
2018-12-04T08:01:09.099Z,11.60
2018-12-04T08:02:10.127Z,11.70
2018-12-04T08:03:11.104Z,11.70
2018-12-04T08:04:12.208Z,11.80
2018-12-04T08:05:13.181Z,11.80
2018-12-04T08:06:14.169Z,11.70
2018-12-04T08:07:15.175Z,11.70
2018-12-04T08:08:16.157Z,11.80
2018-12-04T08:09:17.226Z,11.70
2018-12-04T08:10:18.210Z,11.80
2018-12-04T08:11:19.279Z,11.80
2018-12-04T08:12:20.281Z,11.80
2018-12-04T08:13:21.380Z,11.70
2018-12-04T08:14:22.400Z,11.80
2018-12-04T08:15:23.492Z,11.70
2018-12-04T08:16:24.489Z,11.70
2018-12-04T08:17:25.579Z,11.70
2018-12-04T08:18:26.658Z,11.70
2018-12-04T08:19:27.611Z,11.80
2018-12-04T08:20:28.582Z,11.80
2018-12-04T08:21:29.823Z,11.80
2018-12-04T08:22:30.807Z,11.80
2018-12-04T08:23:31.884Z,11.80
2018-12-04T08:24:32.871Z,11.90
2018-12-04T08:25:33.844Z,11.90
2018-12-04T08:26:34.814Z,11.90
2018-12-04T08:27:35.803Z,11.90
2018-12-04T08:28:36.789Z,11.90
2018-12-04T08:29:37.763Z,11.90
2018-12-04T08:30:38.729Z,11.90
2018-12-04T08:31:39.735Z,12.00
2018-12-04T08:32:40.695Z,12.00
2018-12-04T08:33:41.895Z,11.90
2018-12-04T08:34:42.937Z,12.00
2018-12-04T08:35:44.109Z,12.10
2018-12-04T08:36:45.260Z,12.10
2018-12-04T08:37:46.240Z,12.10
2018-12-04T08:38:47.193Z,12.10
2018-12-04T08:39:48.299Z,12.10
2018-12-04T08:40:49.312Z,12.10
2018-12-04T08:41:50.388Z,12.10
2018-12-04T08:42:51.370Z,12.10
2018-12-04T08:43:52.357Z,12.10
2018-12-04T08:45:05.409Z,12.20
2018-12-04T08:46:07.200Z,12.20
2018-12-04T08:47:08.152Z,12.10
2018-12-04T08:48:09.136Z,12.10
2018-12-04T08:49:10.108Z,12.00
2018-12-04T08:50:11.969Z,12.00
2018-12-04T08:51:12.943Z,12.00
2018-12-04T08:52:14.043Z,12.00
2018-12-04T08:53:18.395Z,11.90
2018-12-04T08:54:19.487Z,12.00
2018-12-04T08:55:20.454Z,11.90
2018-12-04T08:56:21.425Z,11.90
2018-12-04T08:57:22.380Z,12.00
2018-12-04T08:58:23.331Z,12.00
2018-12-04T08:59:24.404Z,12.00
2018-12-04T09:00:25.606Z,12.00
2018-12-04T09:01:26.676Z,12.00
2018-12-04T09:02:34.605Z,12.00
2018-12-04T09:03:35.617Z,12.00
2018-12-04T09:04:36.648Z,12.00
2018-12-04T09:05:37.652Z,12.00
2018-12-04T09:06:38.657Z,12.00
2018-12-04T09:07:39.619Z,12.00
2018-12-04T09:08:40.728Z,11.90
2018-12-04T09:09:41.792Z,11.90
2018-12-04T09:10:42.780Z,11.90
2018-12-04T09:11:43.771Z,11.90
2018-12-04T09:12:44.741Z,11.90
2018-12-04T09:13:45.856Z,11.90
2018-12-04T09:14:47.123Z,11.90
2018-12-04T09:39:20.862Z,10.60
2018-12-04T09:40:21.875Z,10.60
2018-12-04T09:41:22.991Z,10.70
2018-12-04T09:42:23.964Z,10.70
2018-12-04T09:52:50.096Z,11.10
2018-12-04T09:53:52.217Z,11.10
2018-12-04T09:54:53.321Z,11.10
2018-12-04T09:55:54.311Z,11.10
2018-12-04T09:56:55.525Z,11.20
2018-12-04T09:57:56.505Z,11.30
2018-12-04T09:58:57.528Z,11.30
2018-12-04T09:59:58.516Z,11.40
2018-12-04T10:00:59.507Z,11.50
2018-12-04T10:02:00.456Z,11.60
2018-12-04T10:03:01.427Z,11.70
2018-12-04T10:04:02.615Z,11.80
2018-12-04T10:05:04.288Z,11.90
2018-12-04T10:06:05.465Z,11.90
2018-12-04T10:07:13.361Z,12.00
2018-12-04T10:08:14.299Z,12.00
2018-12-04T10:09:15.365Z,12.00
2018-12-04T10:10:16.539Z,12.10
2018-12-04T10:11:17.590Z,12.10
2018-12-04T10:12:18.667Z,12.20
2018-12-04T10:13:19.672Z,12.20
2018-12-04T10:14:20.656Z,12.20
2018-12-04T10:15:21.736Z,12.30
2018-12-04T10:16:22.791Z,12.30
2018-12-04T10:17:23.775Z,12.30
2018-12-04T10:18:24.805Z,12.30
2018-12-04T10:19:25.891Z,12.30
2018-12-04T10:20:26.855Z,12.30
2018-12-04T10:21:27.956Z,12.30
2018-12-04T10:22:28.945Z,12.40
2018-12-04T10:23:29.924Z,12.40
2018-12-04T10:24:31.004Z,12.40
2018-12-04T10:25:31.976Z,12.50
2018-12-04T10:26:32.946Z,12.50
2018-12-04T10:27:34.070Z,12.50
2018-12-04T10:28:35.264Z,12.50
2018-12-04T10:29:36.212Z,12.50
2018-12-04T10:30:37.356Z,12.50
2018-12-04T10:31:38.363Z,12.50
2018-12-04T10:32:39.511Z,12.50
2018-12-04T10:33:40.610Z,12.50
2018-12-04T10:34:41.646Z,12.50
2018-12-04T10:35:42.707Z,12.50
2018-12-04T10:36:43.773Z,12.50
2018-12-04T10:37:44.725Z,12.50
2018-12-04T10:38:45.680Z,12.60
2018-12-04T10:39:46.646Z,12.60
2018-12-04T10:40:47.607Z,12.60
2018-12-04T10:41:48.685Z,12.60
2018-12-04T10:42:49.636Z,12.70
2018-12-04T10:43:50.796Z,12.70
2018-12-04T10:44:51.875Z,12.70
2018-12-04T10:45:53.036Z,12.70
2018-12-04T10:46:53.988Z,12.70
2018-12-04T10:47:55.079Z,12.70
2018-12-04T10:48:56.042Z,12.70
2018-12-04T10:49:57.180Z,12.80
2018-12-04T10:50:58.156Z,12.80
2018-12-04T10:51:59.133Z,12.80
2018-12-04T10:53:00.188Z,12.70
2018-12-04T10:54:01.220Z,12.60
2018-12-04T10:55:10.086Z,12.70
2018-12-04T10:56:11.175Z,12.70
2018-12-04T10:57:12.140Z,12.70
2018-12-04T10:58:13.129Z,12.60
2018-12-04T10:59:14.092Z,12.60
2018-12-04T11:00:21.212Z,12.60
2018-12-04T11:01:24.336Z,12.60
2018-12-04T11:02:25.433Z,12.60
2018-12-04T11:03:32.439Z,12.60
2018-12-04T11:04:33.414Z,12.60
2018-12-04T11:05:34.390Z,12.60
2018-12-04T11:06:35.420Z,12.60
2018-12-04T11:07:36.368Z,12.60
2018-12-04T11:08:37.333Z,12.60
2018-12-04T11:09:38.598Z,12.60
2018-12-04T11:10:39.709Z,12.60
2018-12-04T11:11:40.695Z,12.60
2018-12-04T11:12:41.683Z,12.50
2018-12-04T11:13:42.768Z,12.50
2018-12-04T11:14:43.831Z,12.50
2018-12-04T11:15:44.795Z,12.50
2018-12-04T11:16:45.855Z,12.50
2018-12-04T11:17:46.969Z,12.50
2018-12-04T11:18:47.932Z,12.40
2018-12-04T11:19:49.080Z,12.50
2018-12-04T11:20:50.038Z,12.40
2018-12-04T11:21:50.987Z,12.40
2018-12-04T11:22:51.984Z,12.40
2018-12-04T11:23:53.140Z,12.40
2018-12-04T11:24:54.118Z,12.40
2018-12-04T11:25:55.115Z,12.30
2018-12-04T11:26:56.271Z,12.40
2018-12-04T11:27:57.377Z,12.40
2018-12-04T11:28:58.363Z,12.40
2018-12-04T11:29:59.460Z,12.30
2018-12-04T11:31:00.570Z,12.40
2018-12-04T11:32:01.641Z,12.30
2018-12-04T11:33:02.819Z,12.30
2018-12-04T11:34:03.948Z,12.30
2018-12-04T11:35:05.127Z,12.30
2018-12-04T11:36:06.116Z,12.30
2018-12-04T11:37:07.207Z,12.20
2018-12-04T11:38:08.159Z,12.20
2018-12-04T11:39:09.222Z,12.20
2018-12-04T11:40:10.184Z,12.20
2018-12-04T11:41:11.256Z,12.20
2018-12-04T11:42:12.195Z,12.20
2018-12-04T11:43:13.469Z,12.20
2018-12-04T11:44:14.460Z,12.20
2018-12-04T11:45:15.515Z,12.20
2018-12-04T11:46:16.576Z,12.30
2018-12-04T11:47:17.557Z,12.30
2018-12-04T11:48:18.538Z,12.30
2018-12-04T11:49:19.515Z,12.40
2018-12-04T11:50:20.526Z,12.40
2018-12-04T11:51:21.551Z,12.40
2018-12-04T11:52:22.572Z,12.30
2018-12-04T11:53:23.712Z,12.40
2018-12-04T11:54:24.740Z,12.40
2018-12-04T11:55:25.705Z,12.40
2018-12-04T11:56:26.663Z,12.40
2018-12-04T11:57:28.016Z,12.40
2018-12-04T11:58:29.089Z,12.40
2018-12-04T11:59:30.070Z,12.40
2018-12-04T12:00:32.263Z,12.40
2018-12-04T12:01:33.324Z,12.50
2018-12-04T12:02:34.286Z,12.40
2018-12-04T12:03:35.235Z,12.50
2018-12-04T12:04:36.300Z,12.30
2018-12-04T12:05:37.376Z,12.40
2018-12-04T12:06:38.448Z,12.40
2018-12-04T12:07:39.520Z,12.50
2018-12-04T12:08:40.603Z,12.50
2018-12-04T12:09:41.568Z,12.50
2018-12-04T12:10:42.632Z,12.40
2018-12-04T12:11:43.599Z,12.40
2018-12-04T12:12:44.563Z,12.30
2018-12-04T12:13:45.632Z,12.30
2018-12-04T12:14:46.708Z,12.20
2018-12-04T12:15:47.665Z,12.10
2018-12-04T12:16:48.612Z,12.00
2018-12-04T12:17:49.573Z,11.90
2018-12-04T12:18:50.748Z,11.90
2018-12-04T12:19:51.717Z,11.80
2018-12-04T12:20:52.692Z,11.70
2018-12-04T12:21:53.648Z,11.70
2018-12-04T12:22:54.715Z,11.70
2018-12-04T12:23:55.704Z,11.60
2018-12-04T12:24:56.772Z,11.60
2018-12-04T12:25:57.741Z,11.50
2018-12-04T12:26:58.795Z,11.50
2018-12-04T12:27:59.864Z,11.50
2018-12-04T12:29:01.160Z,11.50
2018-12-04T12:30:03.657Z,11.40
2018-12-04T12:31:04.731Z,11.40
2018-12-04T12:32:05.754Z,11.40
2018-12-04T12:33:06.729Z,11.40
2018-12-04T12:34:07.894Z,11.40
2018-12-04T12:35:09.092Z,11.40
2018-12-04T12:36:10.156Z,11.40
2018-12-04T12:37:11.135Z,11.40
2018-12-04T12:38:12.099Z,11.40
2018-12-04T12:39:13.176Z,11.40
2018-12-04T12:40:14.236Z,11.40
2018-12-04T12:41:15.211Z,11.30
2018-12-04T12:42:16.233Z,11.30
2018-12-04T12:43:17.300Z,11.30
2018-12-04T12:44:18.360Z,11.20
2018-12-04T12:45:19.385Z,11.20
2018-12-04T12:46:20.456Z,11.20
2018-12-04T12:47:21.525Z,11.20
2018-12-04T12:48:22.484Z,11.30
2018-12-04T12:49:23.464Z,11.30
2018-12-04T12:50:24.568Z,11.30
2018-12-04T12:51:25.529Z,11.30
2018-12-04T12:52:26.590Z,11.30
2018-12-04T12:53:27.569Z,11.40
2018-12-04T12:54:28.541Z,11.40
2018-12-04T12:55:29.545Z,11.40
2018-12-04T12:56:30.715Z,11.40
2018-12-04T12:57:31.702Z,11.40
2018-12-04T12:58:32.662Z,11.50
2018-12-04T12:59:33.622Z,11.50
2018-12-04T13:00:34.584Z,11.60
2018-12-04T13:01:35.577Z,11.60
2018-12-04T13:02:36.756Z,11.60
2018-12-04T13:03:37.825Z,11.60
2018-12-04T13:04:38.873Z,11.70
2018-12-04T13:05:39.865Z,11.70
2018-12-04T13:06:41.124Z,11.70
2018-12-04T13:07:42.188Z,11.70
2018-12-04T13:08:43.144Z,11.70
2018-12-04T13:09:44.227Z,11.70
2018-12-04T13:10:45.414Z,11.70
2018-12-04T13:11:46.478Z,11.70
2018-12-04T13:12:47.452Z,11.70
2018-12-04T13:13:48.401Z,11.70
2018-12-04T13:14:49.459Z,11.70
2018-12-04T13:15:50.420Z,11.70
2018-12-04T13:16:51.592Z,11.70
2018-12-04T13:17:52.667Z,11.60
2018-12-04T13:18:53.727Z,11.60
2018-12-04T13:19:54.944Z,11.60
2018-12-04T13:20:56.027Z,11.60
2018-12-04T13:21:56.991Z,11.50
2018-12-04T13:22:58.085Z,11.60
2018-12-04T13:23:59.265Z,11.60
2018-12-04T13:25:00.447Z,11.60
2018-12-04T13:26:01.525Z,11.60
2018-12-04T13:27:02.695Z,11.50
2018-12-04T13:28:03.667Z,11.50
2018-12-04T13:29:04.722Z,11.60
2018-12-04T13:30:06.020Z,11.50
2018-12-04T13:31:07.041Z,11.50
2018-12-04T13:32:08.124Z,11.50
2018-12-04T13:33:09.220Z,11.50
2018-12-04T13:34:10.195Z,11.50
2018-12-04T13:35:11.388Z,11.50
2018-12-04T13:36:12.371Z,11.50
2018-12-04T13:37:13.449Z,11.50
2018-12-04T13:38:14.515Z,11.50
2018-12-04T13:39:15.486Z,11.60
2018-12-04T13:40:16.477Z,11.60
2018-12-04T13:41:17.539Z,11.60